Terminal Aerodrome Forecast
Issued by NWS Pocatello, ID

Home | Current Version | Previous Version | Text Only | Print | Product List | Glossary On
Versions: 1 2 3 4 5 6 7 8 9 10 11 12 13 14
000
FTUS45 KPIH 032358
TAFIDA
TAF
KIDA 032358Z 0400/0424 01011KT P6SM VCTS SCT060CB OVC120
      TEMPO 0401/0403 VRB10G25KT -TSRA OVC060CB
     FM040300 21008KT P6SM FEW120
     FM041900 22011KT P6SM VCTS SCT080CB OVC120=

USA.gov is the U.S. government's official web portal to all federal, state and local government web resources and services.